Fairview Valley, Nevada Weather observations

Data are for observation ending at time listed.
 Day   Time    Ave.   Ave.  Ave.  Vector   Max.   Stn.    Total    Solar   Ave.   Ave.    #1       #2
  of    of     Air    Rel.  Wind   Wind    Wind   Baro.  Precip.   Rad.    Soil   Vis.   Cloud   Cloud
Year   Day     Temp.  Hum.  Speed  Dir.    Gust   Pres.                    Temp.          Ceil    Ceil
2014   (PST)    F      %     mph   deg.    mph     mb.     in.     W/m2     F     (km)   k ft.   k ft.
------------------------------------------------------------------------------------------------------
 109    0:00   53.4    38    2.2   167      5.6    869     0.00       0    64.5   999.0   10.1  999.0
 109    0:10   53.0    39    6.0   319      7.5    868     0.00       0    64.3   999.0   10.1  999.0
 109    0:20   52.7    39    6.0   322      8.3    868     0.00       0    64.2   999.0    9.9  999.0
 109    0:30   51.9    40    2.8   215      6.2    869     0.00       0    64.1   999.0    9.5  999.0
 109    0:40   52.9    37    1.6   256      2.9    869     0.00       0    64.0   999.0    8.1  999.0
 109    0:50   51.5    41    1.9   169      3.9    869     0.00       0    63.9   999.0    7.4  999.0
 109    1:00   51.2    41    2.6   267      3.9    869     0.00       0    63.8   999.0    4.4  999.0
 109    1:10   52.6    38    3.5   340      4.2    868     0.00       0    63.6   999.0    3.1  999.0
 109    1:20   51.2    40    3.2    36      4.2    868     0.00       0    63.6   999.0    0.0  999.0
 109    1:30   49.5    43    2.8    57      3.7    868     0.00       0    63.4   999.0    0.0  999.0
 109    1:40   51.0    39    1.8    43      3.1    868     0.00       0    63.3   999.0    0.0  999.0
 109    1:50   51.9    37    0.7   326      2.6    868     0.00       0    63.2   999.0    0.0  999.0
 109    2:00   48.4    44    0.9   282      5.7    868     0.00       0    63.1   999.0    6.5  999.0
 109    2:10   47.3    46    4.9   273      6.2    868     0.00       0    63.0   999.0    9.5  999.0
 109    2:20   48.4    44    3.7   262      5.5    868     0.00       0    62.9   999.0    9.5  999.0
 109    2:30   46.3    47    3.4   139      5.2    869     0.00       0    62.8   999.0    9.6  999.0
 109    2:40   46.8    45    5.5   145      6.9    869     0.00       0    62.7   999.0    9.7  999.0
 109    2:50   46.9    45    3.5   167      5.8    869     0.00       0    62.6   999.0    8.7  999.0
 109    3:00   47.2    45    3.5   190      5.5    868     0.00       0    62.5   999.0    5.8  999.0
 109    3:10   47.4    44    3.8   208      5.0    868     0.00       0    62.4   999.0    1.0  999.0
 109    3:20   46.1    48    6.7   252      7.9    869     0.00       0    62.3   999.0   10.8  999.0
 109    3:30   44.5    52    5.6   263      6.7    869     0.00       0    62.2   999.0    0.0  999.0
 109    3:40   45.3    50    3.2   292      5.2    869     0.00       0    62.1   999.0    0.0  999.0
 109    3:50   44.5    52    2.6   331      3.5    869     0.00       0    62.0   999.0    0.0  999.0
 109    4:00   44.8    51    2.2   347      3.1    869     0.00       0    61.9   999.0    0.0  999.0
 109    4:10   43.1    53    1.8   162      4.0    869     0.00       0    61.8   999.0    0.0  999.0
 109    4:20   42.8    54    3.8   162      4.5    869     0.00       0    61.6   999.0    5.1  999.0
 109    4:30   43.2    52    3.3   153      4.4    869     0.00       0    61.6   999.0    8.4  999.0
 109    4:40   44.3    50    2.4   145      3.0    869     0.00       0    61.5   999.0    8.0  999.0
 109    4:50   44.6    50    0.9   118      3.0    869     0.00       0    61.4   999.0    7.9  999.0
 109    5:00   43.3    53    0.1   118      1.4    869     0.00       0    61.3   999.0    7.2  999.0
 109    5:10   43.0    53    1.5   304      3.8    869     0.00       1    61.2   999.0    7.9  999.0
 109    5:20   43.6    52    3.3   307      5.1    869     0.00       2    61.1   999.0    7.9  999.0
 109    5:30   44.0    53    4.5   305      5.5    869     0.00       6    60.9   999.0    7.9  999.0
 109    5:40   45.6    50    3.0   296      3.9    869     0.00      12    60.9   109.0  350.0  999.0
 109    5:50   45.9    52    0.1   289      1.1    870     0.00      21    60.7   999.0    8.2  999.0
 109    6:00   45.2    53    1.4   210      2.6    870     0.00      46    60.6   999.0    7.6  999.0
 109    6:10   45.9    52    2.5   191      3.7    870     0.00      54    60.6   999.0    7.3  999.0
 109    6:20   45.8    52    3.3   170      3.7    870     0.00      64    60.5   999.0    6.2  999.0
 109    6:30   46.5    50    2.5   182      3.5    870     0.00      66    60.4   999.0    7.8  999.0
 109    6:40   47.8    46    2.7   235      3.4    870     0.00      59    60.3   999.0    7.1  999.0
 109    6:50   48.1    46    2.0   197      3.1    870     0.00      72    60.2   999.0    5.4  999.0
 109    7:00   48.4    46    2.2   160      3.3    870     0.00     139    60.2   999.0    2.9  999.0
 109    7:10   50.3    41    1.2   197      2.2    870     0.00     226    60.1   999.0    5.9  999.0
 109    7:20   52.4    38    2.9   181      4.1    870     0.00     225    60.0   999.0    4.9  999.0
 109    7:30   53.9    36    3.1   187      4.7    870     0.00     331    59.9   999.0    3.5  999.0
 109    7:40   56.8    32    4.9   177      7.7    870     0.00     478    59.8   999.0    6.2  999.0
 109    7:50   58.8    30    5.2   186      7.5    871     0.00     494    59.7   999.0    0.6  999.0
 109    8:00   60.4    28    5.7   182      8.3    871     0.00     358    59.7   999.0    0.0  999.0
 109    8:10   60.7    28    6.3   192      7.6    871     0.00     397    59.6   999.0    0.0  999.0
 109    8:20   62.2    26    7.3   188      8.9    871     0.00     556    59.6   999.0    0.0  999.0
 109    8:30   63.6    27    7.7   189      9.9    871     0.00     575    59.6   999.0    0.0  999.0
 109    8:40   64.4    30    7.4   191     10.6    871     0.00     576    59.6   999.0    0.0  999.0
 109    8:50   64.2    32    7.8   206     11.6    871     0.00     598    59.6   999.0    0.0  999.0
 109    9:00   65.0    33    6.2   200      9.7    871     0.00     642    59.5   999.0    0.0  999.0
 109    9:10   65.4    33    5.1   194      9.4    871     0.00     670    59.5   999.0    0.0  999.0
 109    9:20   66.1    33    5.8   207     10.5    871     0.00     695    59.5   999.0    0.0  999.0
 109    9:30   66.0    33    5.5   248     10.5    871     0.00     723    59.5   999.0    0.0  999.0
 109    9:40   66.4    33    5.0   280     10.1    871     0.00     746    59.5   999.0    0.0  999.0
 109    9:50   67.7    32    4.2   205     12.4    871     0.00     767    59.6   999.0    0.0  999.0
 109   10:00   67.9    31    9.1   262     15.8    871     0.00     784    59.6   999.0    0.0  999.0
 109   10:10   67.8    31    8.6   242     16.1    871     0.00     807    59.6   999.0    0.0  999.0
 109   10:20   68.1    30   11.0   257     16.3    871     0.00     826    59.7   999.0    0.0  999.0
 109   10:30   68.9    28    9.3   253     16.4    871     0.00     843    59.7   999.0    0.0  999.0
 109   10:40   69.3    26   10.5   261     16.4    870     0.00     859    59.8   999.0    0.0  999.0
 109   10:50   69.0    27    8.3   241     15.2    870     0.00     873    59.8   999.0    0.0  999.0
 109   11:00   70.5    24    9.6   238     20.5    870     0.00     889    59.8   999.0    0.0  999.0
 109   11:10   70.7    23   11.7   252     21.2    870     0.00     899    59.9   999.0    0.0  999.0
 109   11:20   70.6    24   10.5   260     18.2    870     0.00     891    60.0   999.0    0.0  999.0
 109   11:30   70.8    24   10.8   257     19.5    870     0.00     849    60.1   999.0    0.0  999.0
 109   11:40   70.9    24   14.6   265     24.8    870     0.00     864    60.1   999.0    0.0  999.0
 109   11:50   71.6    22   13.1   263     19.9    870     0.00     909    60.2   999.0    0.0  999.0
 109   12:00   71.6    22   11.4   272     18.1    870     0.00     929    60.3   999.0    0.0  999.0
 109   12:10   71.9    19    8.1   280     14.1    870     0.00     927    60.4   999.0    0.0  999.0
 109   12:20   72.1    19    7.9   261     14.7    870     0.00     787    60.6   999.0    0.0  999.0
 109   12:30   72.8    18    6.9   237     13.2    870     0.00     869    60.7   999.0    0.0  999.0
 109   12:40   72.8    17    5.1   261     16.7    870     0.00     906    60.8   999.0    0.0  999.0
 109   12:50   73.2    16    9.8   260     17.1    870     0.00     889    60.9   999.0    0.0  999.0
 109   13:00   72.9    18   11.5   267     19.9    870     0.00     897    61.1   999.0    0.0  999.0
 109   13:10   73.6    17   10.0   259     16.6    870     0.00     776    61.3   999.0    0.0  999.0
 109   13:20   74.4    15   12.3   263     20.5    870     0.00     867    61.5   999.0    0.0  999.0
 109   13:30   73.8    14   10.2   260     17.1    870     0.00     685    61.7   999.0    0.0  999.0
 109   13:40   74.0    15    8.2   273     16.2    869     0.00     730    61.9   999.0    0.0  999.0
 109   13:50   74.0    16    9.8   262     19.6    869     0.00     693    62.1   999.0    0.0  999.0
 109   14:00   74.0    16    9.4   266     17.0    869     0.00     737    62.3   999.0    0.0  999.0
 109   14:10   74.7    16    6.0   263     20.2    869     0.00     796    62.5   999.0    0.0  999.0
 109   14:20   74.8    15   11.3   297     22.7    869     0.00     715    62.8   999.0    0.0  999.0
 109   14:30   75.3    15    7.3   264     13.7    869     0.00     751    63.0   999.0    0.0  999.0
 109   14:40   74.8    15    7.8   239     17.2    869     0.00     726    63.2   999.0    0.0  999.0
 109   14:50   75.5    14    9.6   272     15.2    869     0.00     679    63.4   999.0    0.0  999.0
 109   15:00   75.9    14   13.3   260     20.3    869     0.00     632    63.6   999.0    0.0  999.0
 109   15:10   75.4    14   13.1   257     18.4    869     0.00     590    63.9   999.0    0.0  999.0
 109   15:20   75.1    14    8.8   272     14.9    869     0.00     593    64.1   999.0    0.0  999.0
 109   15:30   75.7    14    3.0   236      8.6    869     0.00     579    64.3   999.0    0.0  999.0
 109   15:40   76.2    13    7.5   273     13.3    869     0.00     552    64.5   999.0    0.0  999.0
 109   15:50   76.5    12    8.9   244     15.3    869     0.00     519    64.8   999.0    0.0  999.0
 109   16:00   76.4    12    9.8   270     18.0    868     0.00     486    65.0   999.0    0.0  999.0
 109   16:10   76.8    12    8.4   297     12.7    868     0.00     456    65.2   999.0    0.0  999.0
 109   16:20   76.8    12   10.0   263     13.7    868     0.00     422    65.4   999.0    0.0  999.0
 109   16:30   76.6    12    8.1   250     15.7    868     0.00     389    65.6   999.0    0.0  999.0
 109   16:40   76.6    11    9.8   248     16.9    868     0.00     356    65.9   999.0    0.0  999.0
 109   16:50   76.6    12   12.6   260     19.4    868     0.00     323    66.1   999.0    0.0  999.0
 109   17:00   76.4    12   11.4   275     17.0    868     0.00     288    66.3   999.0    0.0  999.0
 109   17:10   75.9    12   13.3   287     20.9    868     0.00     254    66.4   999.0    0.0  999.0
 109   17:20   75.5    12   15.7   287     20.9    869     0.00     218    66.6   999.0    0.0  999.0
 109   17:30   74.8    12   13.8   290     18.9    869     0.00     175    66.8   999.0    0.0  999.0
 109   17:40   74.5    13   14.3   293     21.3    869     0.00     149    67.0   999.0    0.0  999.0
 109   17:50   74.0    13   13.3   291     17.0    869     0.00     117    67.1   999.0    0.0  999.0
 109   18:00   73.1    14   14.9   281     18.2    869     0.00      61    67.2   999.0    0.0  999.0
 109   18:10   72.0    14   14.7   290     18.8    869     0.00      28    67.4   999.0    0.0  999.0
 109   18:20   71.3    15   18.5   295     24.0    869     0.00      15    67.5   999.0    0.0  999.0
 109   18:30   70.5    16   18.8   298     25.9    869     0.00       9    67.6   999.0    0.0  999.0
 109   18:40   69.7    15   21.3   301     27.8    869     0.00       3    67.7   999.0    0.0  999.0
 109   18:50   68.8    16   19.9   299     26.5    870     0.00       1    67.7   999.0    0.0  999.0
 109   19:00   67.8    16   16.9   294     21.9    870     0.00       0    67.8   999.0    0.0  999.0
 109   19:10   67.1    16   15.4   292     19.4    870     0.00       0    67.8   999.0    0.0  999.0
 109   19:20   66.4    16   15.6   292     19.6    870     0.00       0    67.8   999.0    0.0  999.0
 109   19:30   65.7    16   14.7   293     20.5    870     0.00       0    67.8   999.0    0.0  999.0
 109   19:40   65.1    16   15.0   296     21.3    870     0.00       0    67.7   999.0    0.0  999.0
 109   19:50   65.0    16   15.8   294     22.2    871     0.00       0    67.7   999.0    0.0  999.0
 109   20:00   64.7    16   17.9   289     23.8    871     0.00       0    67.6   999.0    0.0  999.0
 109   20:10   63.5    17   12.3   275     17.3    871     0.00       0    67.6   999.0    0.0  999.0
 109   20:20   63.0    18   11.4   275     15.6    872     0.00       0    67.6   999.0    0.0  999.0
 109   20:30   62.6    18   10.8   278     15.6    872     0.00       0    67.5   999.0    0.0  999.0
 109   20:40   62.1    19    9.4   283     12.7    872     0.00       0    67.4   999.0    0.0  999.0
 109   20:50   62.0    19    8.8   287     14.0    872     0.00       0    67.3   999.0    0.0  999.0
 109   21:00   62.2    18    5.6   267     11.1    872     0.00       0    67.3   999.0    0.0  999.0
 109   21:10   62.0    19    4.3   261      8.6    873     0.00       0    67.2   999.0    0.0  999.0
 109   21:20   61.8    19    5.4   240      8.9    873     0.00       0    67.0   999.0    0.0  999.0
 109   21:30   61.6    19    4.9   236     10.1    873     0.00       0    67.0   999.0    0.0  999.0
 109   21:40   61.8    20    6.0   267      9.6    873     0.00       0    66.9   999.0    0.0  999.0
 109   21:50   60.8    21    5.7   282      8.0    873     0.00       0    66.8   999.0    0.0  999.0
 109   22:00   59.8    22    5.6   269      7.9    873     0.00       0    66.7   999.0    0.0  999.0
 109   22:10   59.5    22    5.2   279      8.0    873     0.00       0    66.6   999.0    0.0  999.0
 109   22:20   59.8    22    6.2   253     11.8    873     0.00       0    66.5   999.0    0.0  999.0
 109   22:30   58.6    23    5.1   250      6.6    873     0.00       0    66.3   999.0    0.0  999.0
 109   22:40   57.4    24    8.3   252     11.2    873     0.00       0    66.2   999.0    0.0  999.0

Return to Fairview Valley graphs page.


Western Regional Climate Center,wrcc@dri.edu